createdAt,value
2018-09-17T00:01:09.338Z,18.40
2018-09-17T00:03:38.525Z,18.40
2018-09-17T00:06:07.784Z,18.50
2018-09-17T00:08:36.914Z,18.50
2018-09-17T00:11:06.076Z,18.50
2018-09-17T00:13:35.227Z,18.60
2018-09-17T00:16:04.349Z,18.50
2018-09-17T00:18:33.464Z,18.30
2018-09-17T00:21:02.693Z,18.10
2018-09-17T00:23:31.861Z,18.20
2018-09-17T00:26:01.332Z,18.10
2018-09-17T00:28:30.466Z,17.90
2018-09-17T00:30:59.565Z,17.80
2018-09-17T00:33:28.716Z,17.90
2018-09-17T00:35:57.847Z,17.80
2018-09-17T00:38:27.034Z,17.90
2018-09-17T00:40:56.174Z,17.90
2018-09-17T00:43:25.313Z,18.00
2018-09-17T00:45:54.426Z,18.10
2018-09-17T00:48:23.555Z,18.00
2018-09-17T00:50:52.680Z,18.10
2018-09-17T00:53:21.808Z,18.30
2018-09-17T00:55:50.907Z,18.40
2018-09-17T00:58:20.557Z,18.40
2018-09-17T01:00:49.773Z,18.40
2018-09-17T01:03:18.841Z,18.20
2018-09-17T01:05:47.986Z,18.00
2018-09-17T01:08:17.114Z,18.00
2018-09-17T01:10:46.252Z,18.10
2018-09-17T01:13:15.441Z,17.90
2018-09-17T01:15:44.608Z,17.90
2018-09-17T01:18:13.710Z,17.90
2018-09-17T01:20:42.818Z,17.80
2018-09-17T01:23:11.957Z,17.60
2018-09-17T01:25:41.117Z,17.80
2018-09-17T01:28:10.288Z,17.80
2018-09-17T01:30:39.476Z,17.80
2018-09-17T01:33:08.894Z,17.60
2018-09-17T01:35:38.190Z,17.40
2018-09-17T01:38:07.285Z,17.20
2018-09-17T01:40:36.498Z,17.00
2018-09-17T01:43:06.133Z,16.90
2018-09-17T01:45:35.305Z,16.90
2018-09-17T01:48:04.417Z,17.20
2018-09-17T01:50:33.684Z,17.40
2018-09-17T01:53:02.762Z,17.20
2018-09-17T01:55:31.858Z,17.10
2018-09-17T01:58:00.979Z,17.10
2018-09-17T02:00:30.109Z,17.20
2018-09-17T02:02:59.272Z,17.10
2018-09-17T02:05:28.394Z,17.10
2018-09-17T02:07:57.573Z,17.30
2018-09-17T02:10:26.861Z,17.40
2018-09-17T02:12:55.969Z,17.00
2018-09-17T02:15:25.540Z,16.70
2018-09-17T02:17:54.753Z,17.00
2018-09-17T02:20:23.911Z,17.20
2018-09-17T02:22:52.973Z,17.30
2018-09-17T02:25:22.090Z,17.30
2018-09-17T02:27:51.257Z,17.40
2018-09-17T02:30:20.385Z,17.30
2018-09-17T02:32:49.547Z,17.20
2018-09-17T02:35:18.749Z,17.10
2018-09-17T02:37:47.891Z,17.10
2018-09-17T02:40:17.997Z,17.40
2018-09-17T02:42:49.016Z,17.60
2018-09-17T02:45:18.945Z,17.90
2018-09-17T02:47:48.083Z,18.00
2018-09-17T02:50:17.246Z,17.70
2018-09-17T02:52:46.398Z,17.60
2018-09-17T02:55:15.554Z,17.30
2018-09-17T02:57:44.662Z,17.20
2018-09-17T03:00:13.929Z,17.20
2018-09-17T03:02:43.037Z,17.40
2018-09-17T03:05:12.193Z,17.10
2018-09-17T03:07:41.359Z,16.90
2018-09-17T03:10:10.483Z,16.60
2018-09-17T03:12:39.989Z,16.60
2018-09-17T03:15:20.460Z,16.80
2018-09-17T03:17:49.659Z,16.90
2018-09-17T03:20:18.842Z,16.90
2018-09-17T03:22:47.966Z,16.80
2018-09-17T03:25:17.153Z,16.90
2018-09-17T03:27:46.255Z,17.00
2018-09-17T03:30:15.371Z,17.00
2018-09-17T03:32:44.492Z,16.90
2018-09-17T03:35:13.642Z,16.80
2018-09-17T03:37:42.761Z,16.90
2018-09-17T03:40:11.911Z,17.10
2018-09-17T03:42:41.045Z,17.20
2018-09-17T03:45:10.212Z,17.10
2018-09-17T03:47:39.313Z,17.10
2018-09-17T03:50:08.504Z,16.80
2018-09-17T03:52:37.639Z,16.90
2018-09-17T03:55:06.794Z,17.10
2018-09-17T03:57:35.893Z,17.10
2018-09-17T04:00:05.161Z,17.10
2018-09-17T04:02:34.245Z,17.10
2018-09-17T04:05:03.380Z,17.00
2018-09-17T04:07:32.560Z,17.10
2018-09-17T04:10:01.711Z,17.10
2018-09-17T04:12:30.868Z,16.90
2018-09-17T04:15:00.105Z,17.00
2018-09-17T04:17:29.225Z,17.10
2018-09-17T04:19:58.354Z,17.10
2018-09-17T04:22:27.454Z,17.40
2018-09-17T04:24:56.662Z,17.40
2018-09-17T04:27:25.918Z,17.40
2018-09-17T04:29:55.054Z,17.50
2018-09-17T04:32:24.196Z,17.50
2018-09-17T04:34:53.291Z,17.40
2018-09-17T04:37:22.407Z,17.50
2018-09-17T04:39:51.628Z,17.40
2018-09-17T04:42:20.832Z,17.30
2018-09-17T04:44:49.925Z,17.40
2018-09-17T04:47:19.022Z,17.20
2018-09-17T04:49:48.153Z,17.20
2018-09-17T04:52:17.321Z,17.00
2018-09-17T04:54:46.470Z,16.90
2018-09-17T04:57:15.635Z,17.00
2018-09-17T04:59:44.810Z,17.00
2018-09-17T05:02:13.927Z,17.10
2018-09-17T05:04:43.048Z,17.10
2018-09-17T05:07:12.328Z,17.20
2018-09-17T05:09:41.422Z,17.20
2018-09-17T05:12:10.534Z,17.20
2018-09-17T05:14:39.653Z,17.10
2018-09-17T05:17:08.762Z,17.20
2018-09-17T05:19:38.024Z,17.00
2018-09-17T05:22:07.146Z,17.00
2018-09-17T05:24:36.332Z,17.00
2018-09-17T05:27:05.523Z,17.10
2018-09-17T05:29:34.672Z,16.90
2018-09-17T05:32:03.898Z,16.50
2018-09-17T05:34:33.069Z,16.40
2018-09-17T05:37:02.460Z,16.30
2018-09-17T05:39:31.841Z,16.30
2018-09-17T05:42:00.969Z,16.60
2018-09-17T05:44:30.203Z,16.60
2018-09-17T05:46:59.244Z,16.70
2018-09-17T05:49:28.390Z,16.70
2018-09-17T05:51:57.513Z,17.00
2018-09-17T05:54:26.640Z,17.40
2018-09-17T05:56:55.747Z,18.00
2018-09-17T05:59:24.895Z,18.20
2018-09-17T06:01:54.043Z,17.80
2018-09-17T06:04:23.196Z,17.50
2018-09-17T06:06:52.957Z,17.30
2018-09-17T06:09:22.073Z,17.20
2018-09-17T06:11:51.214Z,17.30
2018-09-17T06:14:20.319Z,17.40
2018-09-17T06:16:49.457Z,17.30
2018-09-17T06:19:18.630Z,17.10
2018-09-17T06:21:47.848Z,17.20
2018-09-17T06:24:17.012Z,17.10
2018-09-17T06:26:46.181Z,17.20
2018-09-17T06:29:15.273Z,17.10
2018-09-17T06:31:44.486Z,17.00
2018-09-17T06:34:13.649Z,17.00
2018-09-17T06:36:42.858Z,16.70
2018-09-17T06:39:11.994Z,16.80
2018-09-17T06:41:41.383Z,17.00
2018-09-17T06:44:10.560Z,17.20
2018-09-17T06:46:39.729Z,17.20
2018-09-17T06:49:08.898Z,17.40
2018-09-17T06:51:38.039Z,17.40
2018-09-17T06:54:07.245Z,17.50
2018-09-17T06:56:36.425Z,17.40
2018-09-17T06:59:05.598Z,17.50
2018-09-17T07:01:34.976Z,17.60
2018-09-17T07:04:04.834Z,17.50
2018-09-17T07:06:33.946Z,17.60
2018-09-17T07:09:03.421Z,17.80
2018-09-17T07:11:32.553Z,17.90
2018-09-17T07:14:01.666Z,18.00
2018-09-17T07:16:30.814Z,18.10
2018-09-17T07:19:00.103Z,18.10
2018-09-17T07:21:29.244Z,18.30
2018-09-17T07:23:58.408Z,18.40
2018-09-17T07:26:27.605Z,18.50
2018-09-17T07:28:56.775Z,18.50
2018-09-17T07:31:25.961Z,18.50
2018-09-17T07:33:55.136Z,18.50
2018-09-17T07:36:24.347Z,18.50
2018-09-17T07:38:53.400Z,18.70
2018-09-17T07:41:22.558Z,18.80
2018-09-17T07:43:51.701Z,18.80
2018-09-17T07:46:20.908Z,18.90
2018-09-17T07:48:50.062Z,19.00
2018-09-17T07:51:19.234Z,19.20
2018-09-17T07:53:48.381Z,19.40
2018-09-17T07:56:17.550Z,19.40
2018-09-17T07:58:47.022Z,19.40
2018-09-17T08:01:16.109Z,19.40
2018-09-17T08:03:45.534Z,19.50
2018-09-17T08:06:14.633Z,19.60
2018-09-17T08:08:43.796Z,19.80
2018-09-17T08:11:13.042Z,19.80
2018-09-17T08:13:42.238Z,19.90
2018-09-17T08:16:11.467Z,20.00
2018-09-17T08:18:40.581Z,20.10
2018-09-17T08:21:09.761Z,20.30
2018-09-17T08:23:38.898Z,20.50
2018-09-17T08:26:08.103Z,20.80
2018-09-17T08:28:37.363Z,21.00
2018-09-17T08:31:06.675Z,21.20
2018-09-17T08:33:36.359Z,21.30
2018-09-17T08:36:05.642Z,21.30
2018-09-17T08:38:34.821Z,21.50
2018-09-17T08:41:03.968Z,21.40
2018-09-17T08:43:33.138Z,21.60
2018-09-17T08:46:02.469Z,21.70
2018-09-17T08:48:31.622Z,21.80
2018-09-17T08:51:00.777Z,21.90
2018-09-17T08:53:29.963Z,22.00
2018-09-17T08:56:00.725Z,22.20
2018-09-17T08:58:39.004Z,22.10
2018-09-17T09:01:13.632Z,22.10
2018-09-17T09:03:48.217Z,22.30
2018-09-17T09:06:19.294Z,22.30
2018-09-17T09:08:49.074Z,22.40
2018-09-17T09:11:21.745Z,22.30
2018-09-17T09:13:55.099Z,22.30
2018-09-17T09:16:25.110Z,22.30
2018-09-17T09:18:54.282Z,22.30
2018-09-17T09:21:23.387Z,22.50
2018-09-17T09:23:52.494Z,22.50
2018-09-17T09:26:21.703Z,22.30
2018-09-17T09:28:50.838Z,22.20
2018-09-17T09:31:20.036Z,22.30
2018-09-17T09:33:49.377Z,22.40
2018-09-17T09:36:18.546Z,22.40
2018-09-17T09:38:47.769Z,22.50
2018-09-17T09:41:16.959Z,22.50
2018-09-17T09:43:46.151Z,22.50
2018-09-17T09:46:15.342Z,22.60
2018-09-17T09:48:44.427Z,22.70
2018-09-17T09:51:13.571Z,22.80
2018-09-17T09:53:42.728Z,22.80
2018-09-17T09:56:11.862Z,23.20
2018-09-17T09:58:41.083Z,23.30
2018-09-17T10:01:15.462Z,23.40
2018-09-17T10:03:45.326Z,23.30
2018-09-17T10:06:15.668Z,23.40
2018-09-17T10:08:50.282Z,23.40
2018-09-17T10:11:24.749Z,23.40
2018-09-17T10:13:59.284Z,23.40
2018-09-17T10:16:28.465Z,23.50
2018-09-17T10:19:02.918Z,23.80
2018-09-17T10:21:35.823Z,23.90
2018-09-17T10:24:04.950Z,23.90
2018-09-17T10:26:34.105Z,23.90
2018-09-17T10:29:03.346Z,23.80
2018-09-17T10:31:32.438Z,23.70
2018-09-17T10:34:01.640Z,23.70
2018-09-17T10:36:30.735Z,23.60
2018-09-17T10:38:59.827Z,23.70
2018-09-17T10:41:28.930Z,23.80
2018-09-17T10:43:58.119Z,23.80
2018-09-17T10:46:27.217Z,23.90
2018-09-17T10:48:56.425Z,24.10
2018-09-17T10:51:25.615Z,24.20
2018-09-17T10:53:54.821Z,24.30
2018-09-17T10:56:23.941Z,24.40
2018-09-17T10:58:53.117Z,24.60
2018-09-17T11:01:22.762Z,24.60
2018-09-17T11:03:52.001Z,24.60
2018-09-17T11:06:21.215Z,24.50
2018-09-17T11:08:50.410Z,24.60
2018-09-17T11:11:19.618Z,24.50
2018-09-17T11:13:48.748Z,24.50
2018-09-17T11:16:17.884Z,24.50
2018-09-17T11:18:47.110Z,24.60
2018-09-17T11:21:16.248Z,24.60
2018-09-17T11:23:45.507Z,24.80
2018-09-17T11:26:14.649Z,25.00
2018-09-17T11:28:43.833Z,25.10
2018-09-17T11:31:13.042Z,25.10
2018-09-17T11:33:42.383Z,25.20
2018-09-17T11:36:11.524Z,25.20
2018-09-17T11:38:40.666Z,25.30
2018-09-17T11:41:09.820Z,25.30
2018-09-17T11:43:38.977Z,25.30
2018-09-17T11:46:09.790Z,25.30
2018-09-17T11:48:39.014Z,25.50
2018-09-17T11:51:08.314Z,25.30
2018-09-17T11:53:37.544Z,25.30
2018-09-17T11:56:06.621Z,25.30
2018-09-17T11:58:35.828Z,25.30
2018-09-17T12:01:10.360Z,25.40
2018-09-17T12:03:44.828Z,25.50
2018-09-17T12:06:18.257Z,25.30
2018-09-17T12:08:47.354Z,25.40
2018-09-17T12:11:16.487Z,25.50
2018-09-17T12:13:45.641Z,25.50
2018-09-17T12:16:14.774Z,25.60
2018-09-17T12:18:43.964Z,25.80
2018-09-17T12:21:13.239Z,25.90
2018-09-17T12:23:42.334Z,25.80
2018-09-17T12:26:11.523Z,26.00
2018-09-17T12:28:40.626Z,26.00
2018-09-17T12:31:09.745Z,26.00
2018-09-17T12:33:38.927Z,26.10
2018-09-17T12:36:08.031Z,26.20
2018-09-17T12:38:37.152Z,26.20
2018-09-17T12:41:06.700Z,26.20
2018-09-17T12:43:35.853Z,26.00
2018-09-17T12:46:05.026Z,26.20
2018-09-17T12:48:34.171Z,26.20
2018-09-17T12:51:03.335Z,26.30
2018-09-17T12:53:32.554Z,26.30
2018-09-17T12:56:01.694Z,26.40
2018-09-17T12:58:30.806Z,26.50
2018-09-17T13:00:59.930Z,26.40
2018-09-17T13:03:29.068Z,26.40
2018-09-17T13:05:58.225Z,26.50
2018-09-17T13:08:27.330Z,26.60
2018-09-17T13:10:56.498Z,26.60
2018-09-17T13:13:25.619Z,26.60
2018-09-17T13:15:55.681Z,26.60
2018-09-17T13:18:25.932Z,26.50
2018-09-17T13:20:55.157Z,26.30
2018-09-17T13:23:24.265Z,26.10
2018-09-17T13:25:53.402Z,26.00
2018-09-17T13:28:22.538Z,26.20
2018-09-17T13:38:17.892Z,26.10
2018-09-17T13:40:47.038Z,26.10
2018-09-17T13:43:16.174Z,26.00
2018-09-17T13:45:45.383Z,26.10
2018-09-17T13:48:14.473Z,26.00
2018-09-17T13:50:43.608Z,26.00
2018-09-17T13:53:12.918Z,26.00
2018-09-17T13:55:41.934Z,26.00
2018-09-17T13:58:11.071Z,26.00
2018-09-17T14:00:40.221Z,26.00
2018-09-17T14:03:09.427Z,25.90
2018-09-17T14:05:39.314Z,25.90
2018-09-17T14:08:08.538Z,25.90
2018-09-17T14:10:37.942Z,25.90
2018-09-17T14:13:07.218Z,26.00
2018-09-17T14:15:36.382Z,26.10
2018-09-17T14:18:05.545Z,26.10
2018-09-17T14:20:34.702Z,26.10
2018-09-17T14:23:03.941Z,26.00
2018-09-17T14:25:33.072Z,26.10
2018-09-17T14:28:02.294Z,26.10
2018-09-17T14:30:31.433Z,26.00
2018-09-17T14:33:06.019Z,26.10
2018-09-17T14:35:35.053Z,26.00
2018-09-17T14:38:04.202Z,26.10
2018-09-17T14:40:33.365Z,26.00
2018-09-17T14:43:02.705Z,26.00
2018-09-17T14:45:31.940Z,26.00
2018-09-17T14:48:01.137Z,25.90
2018-09-17T14:50:30.267Z,25.90
2018-09-17T14:52:59.551Z,25.90
2018-09-17T14:55:28.751Z,26.00
2018-09-17T14:57:57.873Z,25.80
2018-09-17T15:00:27.028Z,25.80
2018-09-17T15:02:56.233Z,25.90
2018-09-17T15:05:25.438Z,25.90
2018-09-17T15:07:54.591Z,25.90
2018-09-17T15:10:23.830Z,25.90
2018-09-17T15:12:52.958Z,25.90
2018-09-17T15:15:22.134Z,25.90
2018-09-17T15:17:51.236Z,25.90
2018-09-17T15:20:20.399Z,25.70
2018-09-17T15:22:49.527Z,25.80
2018-09-17T15:25:18.598Z,25.70
2018-09-17T15:27:48.037Z,25.70
2018-09-17T15:30:17.155Z,25.80
2018-09-17T15:32:46.298Z,25.60
2018-09-17T15:35:15.506Z,25.60
2018-09-17T15:37:45.080Z,25.50
2018-09-17T15:40:14.198Z,25.40
2018-09-17T15:42:44.208Z,25.30
2018-09-17T15:45:13.714Z,25.40
2018-09-17T15:47:43.024Z,25.50
2018-09-17T15:50:12.362Z,25.60
2018-09-17T15:52:41.515Z,25.70
2018-09-17T15:55:10.671Z,25.50
2018-09-17T15:57:39.834Z,25.60
2018-09-17T16:00:09.733Z,25.60
2018-09-17T16:02:38.912Z,25.60
2018-09-17T16:05:08.132Z,25.60
2018-09-17T16:07:37.634Z,25.60
2018-09-17T16:10:07.542Z,25.60
2018-09-17T16:12:36.874Z,25.50
2018-09-17T16:15:06.177Z,25.50
2018-09-17T16:17:35.455Z,25.30
2018-09-17T16:20:04.665Z,25.30
2018-09-17T16:22:33.854Z,25.30
2018-09-17T16:25:03.027Z,25.30
2018-09-17T16:27:32.202Z,25.20
2018-09-17T16:30:01.362Z,25.20
2018-09-17T16:32:30.530Z,25.00
2018-09-17T16:34:59.666Z,25.00
2018-09-17T16:37:28.804Z,24.90
2018-09-17T16:39:58.012Z,24.90
2018-09-17T16:42:27.138Z,24.90
2018-09-17T16:44:56.407Z,24.90
2018-09-17T16:47:25.584Z,25.00
2018-09-17T16:49:54.874Z,25.00
2018-09-17T16:52:24.106Z,25.00
2018-09-17T16:54:53.246Z,24.90
2018-09-17T16:57:22.500Z,24.90
2018-09-17T16:59:51.835Z,24.80
2018-09-17T17:02:21.036Z,24.60
2018-09-17T17:04:50.333Z,24.70
2018-09-17T17:07:19.495Z,24.70
2018-09-17T17:09:48.649Z,24.60
2018-09-17T17:12:17.830Z,24.50
2018-09-17T17:14:47.003Z,24.50
2018-09-17T17:17:16.288Z,24.40
2018-09-17T17:19:45.405Z,24.30
2018-09-17T17:22:14.628Z,24.20
2018-09-17T17:24:43.701Z,24.20
2018-09-17T17:27:12.865Z,24.10
2018-09-17T17:29:41.991Z,24.10
2018-09-17T17:32:11.218Z,24.00
2018-09-17T17:34:40.387Z,23.90
2018-09-17T17:37:09.560Z,23.80
2018-09-17T17:39:38.848Z,23.60
2018-09-17T17:42:08.778Z,23.50
2018-09-17T17:44:37.921Z,23.50
2018-09-17T17:47:07.282Z,23.30
2018-09-17T17:49:36.480Z,23.30
2018-09-17T17:52:06.073Z,23.20
2018-09-17T17:54:35.204Z,23.10
2018-09-17T17:57:05.043Z,23.00
2018-09-17T17:59:34.264Z,23.00
2018-09-17T18:02:04.980Z,23.00
2018-09-17T18:04:34.261Z,22.90
2018-09-17T18:07:03.669Z,22.90
2018-09-17T18:09:32.791Z,22.90
2018-09-17T18:12:01.992Z,22.80
2018-09-17T18:14:31.306Z,22.80
2018-09-17T18:17:00.523Z,22.70
2018-09-17T18:19:29.730Z,22.70
2018-09-17T18:21:58.954Z,22.60
2018-09-17T18:24:28.169Z,22.60
2018-09-17T18:26:57.565Z,22.50
2018-09-17T18:29:26.867Z,22.50
2018-09-17T18:31:56.350Z,22.40
2018-09-17T18:34:25.656Z,22.30
2018-09-17T18:36:55.108Z,22.30
2018-09-17T18:39:24.510Z,22.20
2018-09-17T18:41:53.728Z,22.10
2018-09-17T18:44:23.281Z,22.10
2018-09-17T18:46:52.597Z,22.00
2018-09-17T18:49:21.866Z,22.10
2018-09-17T18:51:51.354Z,22.00
2018-09-17T18:54:20.877Z,22.00
2018-09-17T18:56:50.304Z,22.00
2018-09-17T18:59:24.629Z,22.00
2018-09-17T19:01:59.699Z,22.00
2018-09-17T19:04:28.999Z,22.00
2018-09-17T19:06:58.371Z,22.10
2018-09-17T19:09:33.006Z,22.00
2018-09-17T19:12:02.529Z,22.00
2018-09-17T19:14:37.157Z,22.00
2018-09-17T19:17:11.608Z,21.90
2018-09-17T19:19:41.036Z,21.80
2018-09-17T19:22:15.871Z,21.70
2018-09-17T19:24:45.000Z,21.60
2018-09-17T19:27:14.321Z,21.50
2018-09-17T19:29:43.530Z,21.50
2018-09-17T19:32:12.762Z,21.50
2018-09-17T19:34:41.827Z,21.40
2018-09-17T19:37:16.363Z,21.40
2018-09-17T19:39:50.863Z,21.30
2018-09-17T19:42:19.995Z,21.30
2018-09-17T19:44:54.476Z,21.30
2018-09-17T19:47:23.595Z,21.30
2018-09-17T19:49:52.779Z,21.20
2018-09-17T19:52:24.228Z,21.20
2018-09-17T19:54:54.034Z,21.10
2018-09-17T19:57:28.513Z,21.00
2018-09-17T19:59:59.003Z,21.00
2018-09-17T20:02:28.226Z,20.70
2018-09-17T20:05:02.764Z,20.70
2018-09-17T20:07:31.957Z,20.70
2018-09-17T20:10:01.221Z,20.70
2018-09-17T20:12:30.395Z,20.60
2018-09-17T20:14:59.615Z,20.60
2018-09-17T20:17:29.008Z,20.50
2018-09-17T20:19:58.421Z,20.50
2018-09-17T20:22:27.755Z,20.40
2018-09-17T20:24:56.928Z,20.20
2018-09-17T20:27:26.141Z,20.00
2018-09-17T20:29:55.426Z,20.00
2018-09-17T20:32:24.673Z,20.10
2018-09-17T20:34:54.094Z,20.30
2018-09-17T20:37:23.311Z,20.20
2018-09-17T20:39:52.610Z,20.30
2018-09-17T20:42:21.773Z,20.30
2018-09-17T20:44:50.957Z,20.40
2018-09-17T20:47:20.274Z,20.30
2018-09-17T20:49:49.440Z,20.10
2018-09-17T20:52:18.675Z,20.00
2018-09-17T20:54:47.842Z,19.80
2018-09-17T20:59:52.590Z,20.00
2018-09-17T21:02:21.754Z,19.90
2018-09-17T21:04:50.946Z,19.80
2018-09-17T21:07:20.244Z,19.80
2018-09-17T21:09:49.373Z,19.90
2018-09-17T21:12:18.734Z,19.70
2018-09-17T21:14:47.946Z,19.60
2018-09-17T21:17:17.139Z,19.50
2018-09-17T21:19:46.319Z,19.50
2018-09-17T21:22:15.466Z,19.60
2018-09-17T21:24:45.083Z,19.70
2018-09-17T21:27:14.376Z,19.70
2018-09-17T21:29:43.509Z,19.80
2018-09-17T21:32:12.730Z,19.60
2018-09-17T21:34:41.967Z,19.50
2018-09-17T21:37:11.412Z,19.60
2018-09-17T21:39:40.530Z,19.70
2018-09-17T21:42:09.721Z,19.60
2018-09-17T21:44:38.834Z,19.60
2018-09-17T21:47:08.019Z,19.50
2018-09-17T21:49:37.188Z,19.70
2018-09-17T21:52:06.379Z,19.70
2018-09-17T21:54:36.610Z,19.50
2018-09-17T21:57:06.024Z,19.40
2018-09-17T21:59:35.121Z,19.30
2018-09-17T22:02:04.332Z,19.20
2018-09-17T22:04:33.491Z,18.90
2018-09-17T22:07:02.634Z,18.80
2018-09-17T22:09:31.777Z,18.90
2018-09-17T22:12:00.905Z,18.90
2018-09-17T22:14:30.074Z,18.90
2018-09-17T22:16:59.247Z,18.90
2018-09-17T22:19:28.403Z,19.00
2018-09-17T22:21:57.502Z,19.10
2018-09-17T22:24:26.647Z,19.10
2018-09-17T22:26:55.770Z,19.10
2018-09-17T22:29:24.938Z,19.20
2018-09-17T22:31:54.087Z,19.30
2018-09-17T22:34:23.232Z,19.20
2018-09-17T22:36:52.432Z,19.00
2018-09-17T22:39:21.679Z,18.90
2018-09-17T22:41:50.788Z,18.80
2018-09-17T22:44:19.932Z,18.70
2018-09-17T22:46:49.142Z,18.70
2018-09-17T22:49:18.317Z,18.70
2018-09-17T22:51:47.513Z,18.70
2018-09-17T22:54:16.646Z,18.90
2018-09-17T22:56:45.980Z,19.00
2018-09-17T22:59:15.256Z,18.80
2018-09-17T23:01:44.398Z,18.90
2018-09-17T23:04:13.549Z,19.00
2018-09-17T23:06:42.734Z,18.90
2018-09-17T23:09:12.168Z,18.90
2018-09-17T23:11:41.313Z,19.00
2018-09-17T23:14:10.448Z,18.90
2018-09-17T23:16:39.787Z,18.90
2018-09-17T23:19:08.873Z,18.80
2018-09-17T23:21:38.007Z,18.60
2018-09-17T23:24:07.200Z,18.60
2018-09-17T23:26:36.309Z,18.60
2018-09-17T23:29:05.482Z,18.60
2018-09-17T23:31:34.640Z,18.40
2018-09-17T23:34:04.056Z,18.40
2018-09-17T23:36:33.754Z,18.30
2018-09-17T23:39:02.986Z,18.40
2018-09-17T23:41:32.128Z,18.20
2018-09-17T23:44:01.278Z,18.20
2018-09-17T23:46:30.422Z,18.30
2018-09-17T23:48:59.561Z,18.40
2018-09-17T23:51:28.825Z,18.50
2018-09-17T23:53:57.993Z,18.60
2018-09-17T23:56:27.154Z,18.70
2018-09-17T23:58:56.502Z,18.60
